sensor_id;sensor_type;location;lat;lon;timestamp;P1;durP1;ratioP1;P2;durP2;ratioP2
8887;SDS011;4480;52.370;9.748;2022-12-07T00:01:47;25.92;;;15.43;;
8887;SDS011;4480;52.370;9.748;2022-12-07T00:04:15;27.30;;;17.13;;
8887;SDS011;4480;52.370;9.748;2022-12-07T00:06:44;25.60;;;17.27;;
8887;SDS011;4480;52.370;9.748;2022-12-07T00:09:13;22.75;;;15.57;;
8887;SDS011;4480;52.370;9.748;2022-12-07T00:11:42;27.58;;;16.70;;
8887;SDS011;4480;52.370;9.748;2022-12-07T00:14:10;25.00;;;16.02;;
8887;SDS011;4480;52.370;9.748;2022-12-07T00:16:39;24.25;;;15.98;;
8887;SDS011;4480;52.370;9.748;2022-12-07T00:19:06;22.08;;;14.90;;
8887;SDS011;4480;52.370;9.748;2022-12-07T00:21:34;26.35;;;15.75;;
8887;SDS011;4480;52.370;9.748;2022-12-07T00:24:02;26.00;;;15.40;;
8887;SDS011;4480;52.370;9.748;2022-12-07T00:26:32;24.55;;;15.27;;
8887;SDS011;4480;52.370;9.748;2022-12-07T00:29:01;27.90;;;14.60;;
8887;SDS011;4480;52.370;9.748;2022-12-07T00:31:29;19.77;;;14.30;;
8887;SDS011;4480;52.370;9.748;2022-12-07T00:34:00;24.02;;;16.25;;
8887;SDS011;4480;52.370;9.748;2022-12-07T00:36:27;19.90;;;14.07;;
8887;SDS011;4480;52.370;9.748;2022-12-07T00:38:54;20.30;;;14.30;;
8887;SDS011;4480;52.370;9.748;2022-12-07T00:41:24;22.25;;;14.43;;
8887;SDS011;4480;52.370;9.748;2022-12-07T00:43:54;24.30;;;16.35;;
8887;SDS011;4480;52.370;9.748;2022-12-07T00:46:21;24.13;;;15.77;;
8887;SDS011;4480;52.370;9.748;2022-12-07T00:48:48;20.88;;;15.20;;
8887;SDS011;4480;52.370;9.748;2022-12-07T00:51:16;23.80;;;16.02;;
8887;SDS011;4480;52.370;9.748;2022-12-07T00:53:44;21.45;;;14.40;;
8887;SDS011;4480;52.370;9.748;2022-12-07T00:56:12;22.98;;;15.75;;
8887;SDS011;4480;52.370;9.748;2022-12-07T00:58:40;22.88;;;14.82;;
8887;SDS011;4480;52.370;9.748;2022-12-07T01:01:09;21.13;;;14.38;;
8887;SDS011;4480;52.370;9.748;2022-12-07T01:03:37;25.27;;;15.40;;
8887;SDS011;4480;52.370;9.748;2022-12-07T01:06:04;22.20;;;13.38;;
8887;SDS011;4480;52.370;9.748;2022-12-07T01:08:31;23.45;;;15.25;;
8887;SDS011;4480;52.370;9.748;2022-12-07T01:10:58;21.50;;;14.35;;
8887;SDS011;4480;52.370;9.748;2022-12-07T01:13:26;22.48;;;15.02;;
8887;SDS011;4480;52.370;9.748;2022-12-07T01:15:55;19.80;;;14.65;;
8887;SDS011;4480;52.370;9.748;2022-12-07T01:18:26;22.13;;;16.77;;
8887;SDS011;4480;52.370;9.748;2022-12-07T01:20:57;24.30;;;17.75;;
8887;SDS011;4480;52.370;9.748;2022-12-07T01:23:24;23.60;;;16.10;;
8887;SDS011;4480;52.370;9.748;2022-12-07T01:25:53;21.35;;;15.05;;
8887;SDS011;4480;52.370;9.748;2022-12-07T01:28:21;28.63;;;16.23;;
8887;SDS011;4480;52.370;9.748;2022-12-07T01:30:54;26.45;;;16.30;;
8887;SDS011;4480;52.370;9.748;2022-12-07T01:33:21;25.25;;;16.50;;
8887;SDS011;4480;52.370;9.748;2022-12-07T01:35:50;25.80;;;18.88;;
8887;SDS011;4480;52.370;9.748;2022-12-07T01:38:16;24.55;;;17.60;;
8887;SDS011;4480;52.370;9.748;2022-12-07T01:40:43;28.58;;;19.23;;
8887;SDS011;4480;52.370;9.748;2022-12-07T01:43:13;25.17;;;17.27;;
8887;SDS011;4480;52.370;9.748;2022-12-07T01:45:42;28.00;;;19.00;;
8887;SDS011;4480;52.370;9.748;2022-12-07T01:48:09;27.10;;;18.10;;
8887;SDS011;4480;52.370;9.748;2022-12-07T01:50:39;26.90;;;18.13;;
8887;SDS011;4480;52.370;9.748;2022-12-07T01:53:09;23.85;;;17.40;;
8887;SDS011;4480;52.370;9.748;2022-12-07T01:55:37;28.33;;;17.65;;
8887;SDS011;4480;52.370;9.748;2022-12-07T01:58:07;27.10;;;18.40;;
8887;SDS011;4480;52.370;9.748;2022-12-07T02:00:35;24.40;;;17.92;;
8887;SDS011;4480;52.370;9.748;2022-12-07T02:03:03;25.02;;;17.30;;
8887;SDS011;4480;52.370;9.748;2022-12-07T02:05:33;23.75;;;17.02;;
8887;SDS011;4480;52.370;9.748;2022-12-07T02:08:01;24.90;;;17.45;;
8887;SDS011;4480;52.370;9.748;2022-12-07T02:10:30;19.65;;;14.43;;
8887;SDS011;4480;52.370;9.748;2022-12-07T02:12:59;26.35;;;18.27;;
8887;SDS011;4480;52.370;9.748;2022-12-07T02:15:29;21.63;;;15.77;;
8887;SDS011;4480;52.370;9.748;2022-12-07T02:18:04;20.98;;;14.15;;
8887;SDS011;4480;52.370;9.748;2022-12-07T02:20:36;28.55;;;15.95;;
8887;SDS011;4480;52.370;9.748;2022-12-07T02:23:18;23.42;;;16.67;;
8887;SDS011;4480;52.370;9.748;2022-12-07T02:26:18;25.05;;;17.67;;
8887;SDS011;4480;52.370;9.748;2022-12-07T02:29:16;25.65;;;17.63;;
8887;SDS011;4480;52.370;9.748;2022-12-07T02:31:50;23.50;;;15.27;;
8887;SDS011;4480;52.370;9.748;2022-12-07T02:34:25;26.70;;;17.65;;
8887;SDS011;4480;52.370;9.748;2022-12-07T02:36:59;25.50;;;17.40;;
8887;SDS011;4480;52.370;9.748;2022-12-07T02:39:31;25.20;;;18.10;;
8887;SDS011;4480;52.370;9.748;2022-12-07T02:42:05;22.98;;;14.90;;
8887;SDS011;4480;52.370;9.748;2022-12-07T02:44:41;24.20;;;16.92;;
8887;SDS011;4480;52.370;9.748;2022-12-07T02:47:09;28.08;;;16.38;;
8887;SDS011;4480;52.370;9.748;2022-12-07T02:49:39;25.45;;;15.50;;
8887;SDS011;4480;52.370;9.748;2022-12-07T02:52:06;27.83;;;16.17;;
8887;SDS011;4480;52.370;9.748;2022-12-07T02:54:33;24.30;;;15.82;;
8887;SDS011;4480;52.370;9.748;2022-12-07T02:57:00;26.35;;;16.88;;
8887;SDS011;4480;52.370;9.748;2022-12-07T02:59:41;28.55;;;17.15;;
8887;SDS011;4480;52.370;9.748;2022-12-07T03:02:17;24.13;;;15.98;;
8887;SDS011;4480;52.370;9.748;2022-12-07T03:04:52;24.45;;;16.10;;
8887;SDS011;4480;52.370;9.748;2022-12-07T03:07:32;21.15;;;14.30;;
8887;SDS011;4480;52.370;9.748;2022-12-07T03:10:10;21.95;;;14.02;;
8887;SDS011;4480;52.370;9.748;2022-12-07T03:12:45;24.48;;;15.07;;
8887;SDS011;4480;52.370;9.748;2022-12-07T03:15:21;20.95;;;14.38;;
8887;SDS011;4480;52.370;9.748;2022-12-07T03:17:52;21.58;;;14.73;;
8887;SDS011;4480;52.370;9.748;2022-12-07T03:20:23;23.45;;;14.93;;
8887;SDS011;4480;52.370;9.748;2022-12-07T03:22:53;26.40;;;14.70;;
8887;SDS011;4480;52.370;9.748;2022-12-07T03:25:20;22.88;;;13.40;;
8887;SDS011;4480;52.370;9.748;2022-12-07T03:27:48;23.10;;;12.75;;
8887;SDS011;4480;52.370;9.748;2022-12-07T03:32:54;22.45;;;13.65;;
8887;SDS011;4480;52.370;9.748;2022-12-07T03:35:28;23.95;;;12.38;;
8887;SDS011;4480;52.370;9.748;2022-12-07T03:37:59;18.52;;;12.60;;
8887;SDS011;4480;52.370;9.748;2022-12-07T03:40:32;21.55;;;12.98;;
8887;SDS011;4480;52.370;9.748;2022-12-07T03:43:03;21.10;;;11.40;;
8887;SDS011;4480;52.370;9.748;2022-12-07T03:45:33;19.10;;;10.50;;
8887;SDS011;4480;52.370;9.748;2022-12-07T03:48:07;15.15;;;10.40;;
8887;SDS011;4480;52.370;9.748;2022-12-07T03:50:40;17.13;;;12.25;;
8887;SDS011;4480;52.370;9.748;2022-12-07T03:53:11;17.63;;;11.60;;
8887;SDS011;4480;52.370;9.748;2022-12-07T03:55:42;21.05;;;11.95;;
8887;SDS011;4480;52.370;9.748;2022-12-07T03:58:11;17.45;;;11.25;;
8887;SDS011;4480;52.370;9.748;2022-12-07T04:00:43;14.77;;;9.48;;
8887;SDS011;4480;52.370;9.748;2022-12-07T04:03:10;16.42;;;10.65;;
8887;SDS011;4480;52.370;9.748;2022-12-07T04:05:37;14.02;;;8.95;;
8887;SDS011;4480;52.370;9.748;2022-12-07T04:10:40;17.00;;;10.85;;
8887;SDS011;4480;52.370;9.748;2022-12-07T04:13:07;18.38;;;10.23;;
8887;SDS011;4480;52.370;9.748;2022-12-07T04:15:34;17.17;;;10.48;;
8887;SDS011;4480;52.370;9.748;2022-12-07T04:18:00;15.80;;;10.68;;
8887;SDS011;4480;52.370;9.748;2022-12-07T04:20:27;17.10;;;11.63;;
8887;SDS011;4480;52.370;9.748;2022-12-07T04:22:54;15.00;;;9.73;;
8887;SDS011;4480;52.370;9.748;2022-12-07T04:25:21;15.70;;;9.27;;
8887;SDS011;4480;52.370;9.748;2022-12-07T04:27:49;16.08;;;10.30;;
8887;SDS011;4480;52.370;9.748;2022-12-07T04:30:16;16.45;;;10.80;;
8887;SDS011;4480;52.370;9.748;2022-12-07T04:32:42;18.10;;;11.65;;
8887;SDS011;4480;52.370;9.748;2022-12-07T04:35:09;18.27;;;10.98;;
8887;SDS011;4480;52.370;9.748;2022-12-07T04:37:36;24.27;;;11.95;;
8887;SDS011;4480;52.370;9.748;2022-12-07T04:40:04;15.90;;;10.60;;
8887;SDS011;4480;52.370;9.748;2022-12-07T04:42:33;17.15;;;10.40;;
8887;SDS011;4480;52.370;9.748;2022-12-07T04:45:01;17.63;;;12.32;;
8887;SDS011;4480;52.370;9.748;2022-12-07T04:47:28;16.40;;;11.10;;
8887;SDS011;4480;52.370;9.748;2022-12-07T04:49:55;18.75;;;11.30;;
8887;SDS011;4480;52.370;9.748;2022-12-07T04:52:22;14.45;;;10.38;;
8887;SDS011;4480;52.370;9.748;2022-12-07T04:54:49;15.82;;;10.52;;
8887;SDS011;4480;52.370;9.748;2022-12-07T04:57:15;17.27;;;10.40;;
8887;SDS011;4480;52.370;9.748;2022-12-07T04:59:42;21.17;;;10.45;;
8887;SDS011;4480;52.370;9.748;2022-12-07T05:02:10;15.90;;;11.65;;
8887;SDS011;4480;52.370;9.748;2022-12-07T05:04:37;16.75;;;9.70;;
8887;SDS011;4480;52.370;9.748;2022-12-07T05:07:04;21.33;;;11.07;;
8887;SDS011;4480;52.370;9.748;2022-12-07T05:09:30;16.08;;;9.82;;
8887;SDS011;4480;52.370;9.748;2022-12-07T05:11:57;14.43;;;8.68;;
8887;SDS011;4480;52.370;9.748;2022-12-07T05:14:24;17.88;;;9.38;;
8887;SDS011;4480;52.370;9.748;2022-12-07T05:16:51;15.43;;;10.10;;
8887;SDS011;4480;52.370;9.748;2022-12-07T05:19:20;18.58;;;10.88;;
8887;SDS011;4480;52.370;9.748;2022-12-07T05:21:47;17.67;;;11.30;;
8887;SDS011;4480;52.370;9.748;2022-12-07T05:24:14;18.52;;;9.13;;
8887;SDS011;4480;52.370;9.748;2022-12-07T05:26:42;18.30;;;9.52;;
8887;SDS011;4480;52.370;9.748;2022-12-07T05:29:10;15.90;;;9.27;;
8887;SDS011;4480;52.370;9.748;2022-12-07T05:31:38;16.42;;;8.95;;
8887;SDS011;4480;52.370;9.748;2022-12-07T05:34:05;14.48;;;9.60;;
8887;SDS011;4480;52.370;9.748;2022-12-07T05:36:33;13.60;;;8.80;;
8887;SDS011;4480;52.370;9.748;2022-12-07T05:39:00;16.25;;;10.05;;
8887;SDS011;4480;52.370;9.748;2022-12-07T05:41:26;14.60;;;8.90;;
8887;SDS011;4480;52.370;9.748;2022-12-07T05:44:13;16.05;;;9.38;;
8887;SDS011;4480;52.370;9.748;2022-12-07T05:46:40;17.20;;;8.13;;
8887;SDS011;4480;52.370;9.748;2022-12-07T05:49:07;19.92;;;9.90;;
8887;SDS011;4480;52.370;9.748;2022-12-07T05:51:35;12.35;;;7.80;;
8887;SDS011;4480;52.370;9.748;2022-12-07T05:54:02;13.90;;;7.72;;
8887;SDS011;4480;52.370;9.748;2022-12-07T05:56:28;16.83;;;8.52;;
8887;SDS011;4480;52.370;9.748;2022-12-07T05:58:55;17.65;;;9.50;;
8887;SDS011;4480;52.370;9.748;2022-12-07T06:01:40;17.42;;;8.07;;
8887;SDS011;4480;52.370;9.748;2022-12-07T06:04:07;15.80;;;9.02;;
8887;SDS011;4480;52.370;9.748;2022-12-07T06:06:35;17.58;;;10.32;;
8887;SDS011;4480;52.370;9.748;2022-12-07T06:09:02;14.35;;;7.40;;
8887;SDS011;4480;52.370;9.748;2022-12-07T06:11:31;14.43;;;6.95;;
8887;SDS011;4480;52.370;9.748;2022-12-07T06:14:18;14.57;;;7.22;;
8887;SDS011;4480;52.370;9.748;2022-12-07T06:16:45;12.15;;;7.20;;
8887;SDS011;4480;52.370;9.748;2022-12-07T06:19:12;11.75;;;6.72;;
8887;SDS011;4480;52.370;9.748;2022-12-07T06:21:40;10.60;;;6.50;;
8887;SDS011;4480;52.370;9.748;2022-12-07T06:24:07;10.13;;;6.40;;
8887;SDS011;4480;52.370;9.748;2022-12-07T06:26:35;11.02;;;6.65;;
8887;SDS011;4480;52.370;9.748;2022-12-07T06:29:01;10.73;;;6.65;;
8887;SDS011;4480;52.370;9.748;2022-12-07T06:31:28;11.52;;;6.28;;
8887;SDS011;4480;52.370;9.748;2022-12-07T06:33:57;11.90;;;6.35;;
8887;SDS011;4480;52.370;9.748;2022-12-07T06:36:24;8.75;;;6.15;;
8887;SDS011;4480;52.370;9.748;2022-12-07T06:38:52;12.02;;;6.13;;
8887;SDS011;4480;52.370;9.748;2022-12-07T06:41:19;9.23;;;5.93;;
8887;SDS011;4480;52.370;9.748;2022-12-07T06:43:46;14.27;;;7.43;;
8887;SDS011;4480;52.370;9.748;2022-12-07T06:46:12;14.23;;;6.35;;
8887;SDS011;4480;52.370;9.748;2022-12-07T06:48:40;10.07;;;6.00;;
8887;SDS011;4480;52.370;9.748;2022-12-07T06:51:06;7.95;;;5.57;;
8887;SDS011;4480;52.370;9.748;2022-12-07T06:53:33;7.75;;;5.13;;
8887;SDS011;4480;52.370;9.748;2022-12-07T06:56:02;10.65;;;5.45;;
8887;SDS011;4480;52.370;9.748;2022-12-07T06:58:29;9.15;;;4.93;;
8887;SDS011;4480;52.370;9.748;2022-12-07T07:00:56;8.38;;;5.30;;
8887;SDS011;4480;52.370;9.748;2022-12-07T07:03:23;7.75;;;4.85;;
8887;SDS011;4480;52.370;9.748;2022-12-07T07:05:50;8.15;;;6.53;;
8887;SDS011;4480;52.370;9.748;2022-12-07T07:08:16;10.60;;;5.30;;
8887;SDS011;4480;52.370;9.748;2022-12-07T07:10:43;12.65;;;5.00;;
8887;SDS011;4480;52.370;9.748;2022-12-07T07:13:11;7.78;;;5.20;;
8887;SDS011;4480;52.370;9.748;2022-12-07T07:15:38;11.25;;;5.00;;
8887;SDS011;4480;52.370;9.748;2022-12-07T07:18:05;9.25;;;4.30;;
8887;SDS011;4480;52.370;9.748;2022-12-07T07:20:31;6.53;;;4.22;;
8887;SDS011;4480;52.370;9.748;2022-12-07T07:22:58;6.55;;;4.03;;
8887;SDS011;4480;52.370;9.748;2022-12-07T07:25:25;15.55;;;4.25;;
8887;SDS011;4480;52.370;9.748;2022-12-07T07:27:52;14.43;;;4.50;;
8887;SDS011;4480;52.370;9.748;2022-12-07T07:30:20;5.55;;;3.60;;
8887;SDS011;4480;52.370;9.748;2022-12-07T07:32:47;8.80;;;4.30;;
8887;SDS011;4480;52.370;9.748;2022-12-07T07:35:14;5.53;;;3.92;;
8887;SDS011;4480;52.370;9.748;2022-12-07T07:37:41;9.57;;;4.15;;
8887;SDS011;4480;52.370;9.748;2022-12-07T07:40:09;11.15;;;4.00;;
8887;SDS011;4480;52.370;9.748;2022-12-07T07:42:36;6.50;;;3.17;;
8887;SDS011;4480;52.370;9.748;2022-12-07T07:45:03;6.88;;;3.85;;
8887;SDS011;4480;52.370;9.748;2022-12-07T07:47:31;9.32;;;4.60;;
8887;SDS011;4480;52.370;9.748;2022-12-07T07:49:58;6.03;;;3.20;;
8887;SDS011;4480;52.370;9.748;2022-12-07T07:52:25;8.60;;;3.40;;
8887;SDS011;4480;52.370;9.748;2022-12-07T07:54:52;6.30;;;2.95;;
8887;SDS011;4480;52.370;9.748;2022-12-07T07:57:19;7.15;;;3.35;;
8887;SDS011;4480;52.370;9.748;2022-12-07T07:59:46;7.07;;;4.20;;
8887;SDS011;4480;52.370;9.748;2022-12-07T08:02:13;7.93;;;2.88;;
8887;SDS011;4480;52.370;9.748;2022-12-07T08:04:43;10.85;;;3.90;;
8887;SDS011;4480;52.370;9.748;2022-12-07T08:07:10;5.05;;;2.88;;
8887;SDS011;4480;52.370;9.748;2022-12-07T08:09:37;4.28;;;2.63;;
8887;SDS011;4480;52.370;9.748;2022-12-07T08:12:04;7.22;;;3.25;;
8887;SDS011;4480;52.370;9.748;2022-12-07T08:14:32;3.45;;;2.60;;
8887;SDS011;4480;52.370;9.748;2022-12-07T08:16:59;7.15;;;2.50;;
8887;SDS011;4480;52.370;9.748;2022-12-07T08:19:26;2.47;;;2.28;;
8887;SDS011;4480;52.370;9.748;2022-12-07T08:21:54;3.25;;;1.70;;
8887;SDS011;4480;52.370;9.748;2022-12-07T08:24:21;4.35;;;3.22;;
8887;SDS011;4480;52.370;9.748;2022-12-07T08:26:50;3.45;;;2.10;;
8887;SDS011;4480;52.370;9.748;2022-12-07T08:29:17;2.70;;;2.10;;
8887;SDS011;4480;52.370;9.748;2022-12-07T08:31:43;8.48;;;2.50;;
8887;SDS011;4480;52.370;9.748;2022-12-07T08:34:10;5.20;;;2.55;;
8887;SDS011;4480;52.370;9.748;2022-12-07T08:36:38;4.20;;;2.88;;
8887;SDS011;4480;52.370;9.748;2022-12-07T08:39:06;6.53;;;2.85;;
8887;SDS011;4480;52.370;9.748;2022-12-07T08:41:33;8.48;;;2.20;;
8887;SDS011;4480;52.370;9.748;2022-12-07T08:44:00;3.88;;;2.35;;
8887;SDS011;4480;52.370;9.748;2022-12-07T08:46:28;3.20;;;2.15;;
8887;SDS011;4480;52.370;9.748;2022-12-07T08:49:01;4.57;;;2.75;;
8887;SDS011;4480;52.370;9.748;2022-12-07T08:51:30;5.13;;;2.15;;
8887;SDS011;4480;52.370;9.748;2022-12-07T08:53:58;3.05;;;1.83;;
8887;SDS011;4480;52.370;9.748;2022-12-07T08:56:28;4.72;;;2.20;;
8887;SDS011;4480;52.370;9.748;2022-12-07T08:58:55;3.10;;;2.45;;
8887;SDS011;4480;52.370;9.748;2022-12-07T09:01:23;3.72;;;2.17;;
8887;SDS011;4480;52.370;9.748;2022-12-07T09:03:49;5.35;;;2.20;;
8887;SDS011;4480;52.370;9.748;2022-12-07T09:06:16;3.65;;;1.80;;
8887;SDS011;4480;52.370;9.748;2022-12-07T09:08:43;6.75;;;2.17;;
8887;SDS011;4480;52.370;9.748;2022-12-07T09:11:13;5.38;;;3.05;;
8887;SDS011;4480;52.370;9.748;2022-12-07T09:13:41;4.43;;;1.70;;
8887;SDS011;4480;52.370;9.748;2022-12-07T09:16:08;3.30;;;1.50;;
8887;SDS011;4480;52.370;9.748;2022-12-07T09:18:34;2.70;;;2.28;;
8887;SDS011;4480;52.370;9.748;2022-12-07T09:21:01;6.53;;;1.70;;
8887;SDS011;4480;52.370;9.748;2022-12-07T09:23:28;2.88;;;1.65;;
8887;SDS011;4480;52.370;9.748;2022-12-07T09:25:54;3.60;;;2.10;;
8887;SDS011;4480;52.370;9.748;2022-12-07T09:28:24;4.28;;;2.10;;
8887;SDS011;4480;52.370;9.748;2022-12-07T09:30:52;2.08;;;1.88;;
8887;SDS011;4480;52.370;9.748;2022-12-07T09:33:19;12.90;;;1.80;;
8887;SDS011;4480;52.370;9.748;2022-12-07T09:35:46;1.83;;;1.55;;
8887;SDS011;4480;52.370;9.748;2022-12-07T09:38:13;5.05;;;2.03;;
8887;SDS011;4480;52.370;9.748;2022-12-07T09:40:41;5.72;;;1.88;;
8887;SDS011;4480;52.370;9.748;2022-12-07T09:43:11;4.03;;;1.77;;
8887;SDS011;4480;52.370;9.748;2022-12-07T09:45:40;4.40;;;1.50;;
8887;SDS011;4480;52.370;9.748;2022-12-07T09:48:10;3.20;;;1.70;;
8887;SDS011;4480;52.370;9.748;2022-12-07T09:50:42;3.47;;;1.63;;
8887;SDS011;4480;52.370;9.748;2022-12-07T09:53:10;1.75;;;1.40;;
8887;SDS011;4480;52.370;9.748;2022-12-07T09:55:41;2.33;;;1.13;;
8887;SDS011;4480;52.370;9.748;2022-12-07T09:58:10;3.88;;;1.40;;
8887;SDS011;4480;52.370;9.748;2022-12-07T10:00:43;6.55;;;1.98;;
8887;SDS011;4480;52.370;9.748;2022-12-07T10:03:12;2.70;;;1.83;;
8887;SDS011;4480;52.370;9.748;2022-12-07T10:05:40;4.55;;;1.88;;
8887;SDS011;4480;52.370;9.748;2022-12-07T10:08:10;2.88;;;1.55;;
8887;SDS011;4480;52.370;9.748;2022-12-07T10:10:38;4.97;;;1.88;;
8887;SDS011;4480;52.370;9.748;2022-12-07T10:13:06;1.30;;;1.20;;
8887;SDS011;4480;52.370;9.748;2022-12-07T10:15:43;6.13;;;1.80;;
8887;SDS011;4480;52.370;9.748;2022-12-07T10:18:20;1.50;;;1.40;;
8887;SDS011;4480;52.370;9.748;2022-12-07T10:21:02;4.25;;;2.15;;
8887;SDS011;4480;52.370;9.748;2022-12-07T10:23:33;3.53;;;1.60;;
8887;SDS011;4480;52.370;9.748;2022-12-07T10:26:09;3.45;;;1.48;;
8887;SDS011;4480;52.370;9.748;2022-12-07T10:28:46;2.55;;;1.55;;
8887;SDS011;4480;52.370;9.748;2022-12-07T10:31:15;2.92;;;1.50;;
8887;SDS011;4480;52.370;9.748;2022-12-07T10:33:49;6.60;;;1.70;;
8887;SDS011;4480;52.370;9.748;2022-12-07T10:36:19;3.53;;;2.88;;
8887;SDS011;4480;52.370;9.748;2022-12-07T10:38:49;8.30;;;2.17;;
8887;SDS011;4480;52.370;9.748;2022-12-07T10:41:17;2.97;;;1.50;;
8887;SDS011;4480;52.370;9.748;2022-12-07T10:43:49;5.32;;;1.55;;
8887;SDS011;4480;52.370;9.748;2022-12-07T10:46:34;6.50;;;2.20;;
8887;SDS011;4480;52.370;9.748;2022-12-07T10:49:33;3.65;;;1.52;;
8887;SDS011;4480;52.370;9.748;2022-12-07T10:52:13;2.55;;;2.00;;
8887;SDS011;4480;52.370;9.748;2022-12-07T10:54:48;4.03;;;2.35;;
8887;SDS011;4480;52.370;9.748;2022-12-07T10:57:30;5.30;;;2.10;;
8887;SDS011;4480;52.370;9.748;2022-12-07T11:00:10;3.33;;;2.00;;
8887;SDS011;4480;52.370;9.748;2022-12-07T11:02:54;3.53;;;1.55;;
8887;SDS011;4480;52.370;9.748;2022-12-07T11:05:38;3.13;;;1.75;;
8887;SDS011;4480;52.370;9.748;2022-12-07T11:08:11;5.05;;;2.10;;
8887;SDS011;4480;52.370;9.748;2022-12-07T11:10:48;6.85;;;2.17;;
8887;SDS011;4480;52.370;9.748;2022-12-07T11:13:25;4.80;;;1.90;;
8887;SDS011;4480;52.370;9.748;2022-12-07T11:16:07;4.28;;;1.52;;
8887;SDS011;4480;52.370;9.748;2022-12-07T11:18:57;2.90;;;1.70;;
8887;SDS011;4480;52.370;9.748;2022-12-07T11:21:34;4.85;;;1.58;;
8887;SDS011;4480;52.370;9.748;2022-12-07T11:24:10;3.72;;;1.80;;
8887;SDS011;4480;52.370;9.748;2022-12-07T11:29:37;2.47;;;1.10;;
8887;SDS011;4480;52.370;9.748;2022-12-07T11:32:14;3.00;;;1.77;;
8887;SDS011;4480;52.370;9.748;2022-12-07T11:34:49;2.25;;;1.27;;
8887;SDS011;4480;52.370;9.748;2022-12-07T11:37:26;2.10;;;1.50;;
8887;SDS011;4480;52.370;9.748;2022-12-07T11:39:59;2.92;;;1.58;;
8887;SDS011;4480;52.370;9.748;2022-12-07T11:42:29;2.40;;;1.67;;
8887;SDS011;4480;52.370;9.748;2022-12-07T11:45:00;2.90;;;1.70;;
8887;SDS011;4480;52.370;9.748;2022-12-07T11:47:36;2.72;;;1.58;;
8887;SDS011;4480;52.370;9.748;2022-12-07T11:50:14;1.92;;;1.70;;
8887;SDS011;4480;52.370;9.748;2022-12-07T11:52:53;4.72;;;1.50;;
8887;SDS011;4480;52.370;9.748;2022-12-07T11:55:24;2.63;;;1.60;;
8887;SDS011;4480;52.370;9.748;2022-12-07T11:57:58;4.28;;;1.85;;
8887;SDS011;4480;52.370;9.748;2022-12-07T12:00:34;5.07;;;2.05;;
8887;SDS011;4480;52.370;9.748;2022-12-07T12:03:03;4.90;;;2.45;;
8887;SDS011;4480;52.370;9.748;2022-12-07T12:05:37;4.72;;;2.58;;
8887;SDS011;4480;52.370;9.748;2022-12-07T12:08:11;7.32;;;3.70;;
8887;SDS011;4480;52.370;9.748;2022-12-07T12:10:44;5.68;;;2.60;;
8887;SDS011;4480;52.370;9.748;2022-12-07T12:13:35;2.95;;;2.60;;
8887;SDS011;4480;52.370;9.748;2022-12-07T12:16:19;3.17;;;2.63;;
8887;SDS011;4480;52.370;9.748;2022-12-07T12:19:06;8.70;;;3.25;;
8887;SDS011;4480;52.370;9.748;2022-12-07T12:21:44;3.83;;;2.80;;
8887;SDS011;4480;52.370;9.748;2022-12-07T12:24:17;7.25;;;2.63;;
8887;SDS011;4480;52.370;9.748;2022-12-07T12:26:48;4.78;;;2.05;;
8887;SDS011;4480;52.370;9.748;2022-12-07T12:29:20;4.88;;;2.60;;
8887;SDS011;4480;52.370;9.748;2022-12-07T12:32:05;8.10;;;3.20;;
8887;SDS011;4480;52.370;9.748;2022-12-07T12:34:40;9.70;;;2.72;;
8887;SDS011;4480;52.370;9.748;2022-12-07T12:37:38;5.00;;;2.60;;
8887;SDS011;4480;52.370;9.748;2022-12-07T12:46:35;10.02;;;2.70;;
8887;SDS011;4480;52.370;9.748;2022-12-07T12:49:14;7.20;;;2.85;;
8887;SDS011;4480;52.370;9.748;2022-12-07T12:52:01;10.40;;;2.78;;
8887;SDS011;4480;52.370;9.748;2022-12-07T12:55:12;6.30;;;2.42;;
8887;SDS011;4480;52.370;9.748;2022-12-07T12:57:43;3.17;;;2.13;;
8887;SDS011;4480;52.370;9.748;2022-12-07T13:00:17;6.25;;;2.10;;
8887;SDS011;4480;52.370;9.748;2022-12-07T13:02:49;5.38;;;2.88;;
8887;SDS011;4480;52.370;9.748;2022-12-07T13:05:18;4.07;;;2.38;;
8887;SDS011;4480;52.370;9.748;2022-12-07T13:07:48;4.25;;;2.40;;
8887;SDS011;4480;52.370;9.748;2022-12-07T13:10:20;6.43;;;3.10;;
8887;SDS011;4480;52.370;9.748;2022-12-07T13:13:08;5.10;;;2.45;;
8887;SDS011;4480;52.370;9.748;2022-12-07T13:25:07;3.55;;;1.95;;
8887;SDS011;4480;52.370;9.748;2022-12-07T13:27:39;3.70;;;2.25;;
8887;SDS011;4480;52.370;9.748;2022-12-07T13:30:11;6.72;;;2.15;;
8887;SDS011;4480;52.370;9.748;2022-12-07T13:32:43;3.95;;;2.05;;
8887;SDS011;4480;52.370;9.748;2022-12-07T13:35:33;5.32;;;2.00;;
8887;SDS011;4480;52.370;9.748;2022-12-07T13:38:02;4.03;;;1.60;;
8887;SDS011;4480;52.370;9.748;2022-12-07T13:40:32;5.85;;;2.03;;
8887;SDS011;4480;52.370;9.748;2022-12-07T13:42:59;4.68;;;1.70;;
8887;SDS011;4480;52.370;9.748;2022-12-07T13:45:41;3.55;;;2.05;;
8887;SDS011;4480;52.370;9.748;2022-12-07T13:48:16;7.43;;;2.35;;
8887;SDS011;4480;52.370;9.748;2022-12-07T13:50:52;6.05;;;2.47;;
8887;SDS011;4480;52.370;9.748;2022-12-07T13:53:20;6.28;;;2.90;;
8887;SDS011;4480;52.370;9.748;2022-12-07T13:55:48;6.28;;;2.17;;
8887;SDS011;4480;52.370;9.748;2022-12-07T13:58:15;14.25;;;2.70;;
8887;SDS011;4480;52.370;9.748;2022-12-07T14:00:42;3.67;;;2.10;;
8887;SDS011;4480;52.370;9.748;2022-12-07T14:03:25;3.58;;;1.80;;
8887;SDS011;4480;52.370;9.748;2022-12-07T14:11:34;10.95;;;2.70;;
8887;SDS011;4480;52.370;9.748;2022-12-07T14:14:02;3.45;;;1.80;;
8887;SDS011;4480;52.370;9.748;2022-12-07T14:16:29;8.68;;;2.67;;
8887;SDS011;4480;52.370;9.748;2022-12-07T14:19:00;8.05;;;1.95;;
8887;SDS011;4480;52.370;9.748;2022-12-07T14:21:28;6.07;;;1.75;;
8887;SDS011;4480;52.370;9.748;2022-12-07T14:24:16;6.47;;;2.38;;
8887;SDS011;4480;52.370;9.748;2022-12-07T14:26:44;5.97;;;2.28;;
8887;SDS011;4480;52.370;9.748;2022-12-07T14:29:21;7.38;;;2.03;;
8887;SDS011;4480;52.370;9.748;2022-12-07T14:31:56;3.92;;;1.63;;
8887;SDS011;4480;52.370;9.748;2022-12-07T14:34:25;9.13;;;1.90;;
8887;SDS011;4480;52.370;9.748;2022-12-07T14:36:52;4.80;;;1.98;;
8887;SDS011;4480;52.370;9.748;2022-12-07T14:39:19;4.80;;;2.53;;
8887;SDS011;4480;52.370;9.748;2022-12-07T14:41:46;6.05;;;1.60;;
8887;SDS011;4480;52.370;9.748;2022-12-07T14:44:19;6.05;;;1.80;;
8887;SDS011;4480;52.370;9.748;2022-12-07T14:46:47;1.65;;;1.27;;
8887;SDS011;4480;52.370;9.748;2022-12-07T14:49:14;5.80;;;2.60;;
8887;SDS011;4480;52.370;9.748;2022-12-07T14:51:43;5.13;;;2.08;;
8887;SDS011;4480;52.370;9.748;2022-12-07T14:54:13;4.15;;;1.80;;
8887;SDS011;4480;52.370;9.748;2022-12-07T14:56:42;7.43;;;2.40;;
8887;SDS011;4480;52.370;9.748;2022-12-07T14:59:10;3.50;;;2.10;;
8887;SDS011;4480;52.370;9.748;2022-12-07T15:01:37;7.80;;;2.42;;
8887;SDS011;4480;52.370;9.748;2022-12-07T15:04:05;6.63;;;2.15;;
8887;SDS011;4480;52.370;9.748;2022-12-07T15:06:32;5.93;;;2.65;;
8887;SDS011;4480;52.370;9.748;2022-12-07T15:09:00;2.17;;;1.80;;
8887;SDS011;4480;52.370;9.748;2022-12-07T15:11:27;3.60;;;2.53;;
8887;SDS011;4480;52.370;9.748;2022-12-07T15:13:54;5.53;;;2.45;;
8887;SDS011;4480;52.370;9.748;2022-12-07T15:16:38;7.05;;;2.97;;
8887;SDS011;4480;52.370;9.748;2022-12-07T15:19:06;8.13;;;3.35;;
8887;SDS011;4480;52.370;9.748;2022-12-07T15:21:36;8.05;;;2.75;;
8887;SDS011;4480;52.370;9.748;2022-12-07T15:24:04;8.80;;;2.33;;
8887;SDS011;4480;52.370;9.748;2022-12-07T15:26:32;8.05;;;2.60;;
8887;SDS011;4480;52.370;9.748;2022-12-07T15:28:58;5.93;;;2.65;;
8887;SDS011;4480;52.370;9.748;2022-12-07T15:31:25;5.38;;;3.28;;
8887;SDS011;4480;52.370;9.748;2022-12-07T15:33:52;8.23;;;2.90;;
8887;SDS011;4480;52.370;9.748;2022-12-07T15:36:20;6.68;;;2.38;;
8887;SDS011;4480;52.370;9.748;2022-12-07T15:38:49;8.32;;;3.20;;
8887;SDS011;4480;52.370;9.748;2022-12-07T15:41:17;3.58;;;2.35;;
8887;SDS011;4480;52.370;9.748;2022-12-07T15:43:44;3.13;;;2.40;;
8887;SDS011;4480;52.370;9.748;2022-12-07T15:46:29;7.40;;;2.40;;
8887;SDS011;4480;52.370;9.748;2022-12-07T15:48:56;6.05;;;2.00;;
8887;SDS011;4480;52.370;9.748;2022-12-07T15:51:24;6.35;;;2.65;;
8887;SDS011;4480;52.370;9.748;2022-12-07T15:53:50;3.95;;;2.65;;
8887;SDS011;4480;52.370;9.748;2022-12-07T15:56:18;4.97;;;2.55;;